METAR Data
IDs: Format: Raw Decoded Include TAF

Data at: 1853 UTC 14 Dec 2018

KIAH 141753Z 28014G22KT 10SM OVC017 09/07 A2994 RMK AO2 SLP139 60000 T00940067 10100 20072 50010
KIAH 141653Z 30015G23KT 10SM OVC015 09/07 A2996 RMK AO2 PK WND 29027/1629 SLP146 T00890067
KIAH 141553Z 29012G19KT 10SM OVC013 09/07 A2995 RMK AO2 DZE16 SLP142 P0000 T00890072
KIAH 141517Z 28012G21KT 10SM OVC010 08/07 A2993 RMK AO2 DZE16 P0000 T00830072
KIAH 141453Z 28010KT 3SM -DZ BR BKN008 OVC013 08/07 A2991 RMK AO2 SLP129 P0000 60000 T00780072 53018
KIAH 141420Z 27010KT 3SM -DZ BR FEW005 OVC009 08/07 A2990 RMK AO2 P0000 T00780072
KIAH 141353Z 26008G16KT 3SM -DZ BR FEW005 OVC010 07/07 A2989 RMK AO2 DZE17B44RAB19E44 SLP122 P0000 T00720067
KIAH 141344Z 27009G15KT 3SM -DZ BR OVC010 07/07 A2989 RMK AO2 DZE17B44RAB19E44 P0000 T00720067
KIAH 141253Z 26010G16KT 7SM -DZ BKN011 OVC020 07/06 A2987 RMK AO2 RAB33E44DZB53 SLP115 P0000 T00720061 $
KIAH 141221Z 26010G16KT 5SM BR FEW008 OVC012 07/06 A2986 RMK AO2 T00720061 $
KIAH 141205Z 26008G18KT 5SM BR OVC013 07/06 A2986 RMK AO2 T00720061 $
KIAH 141153Z 26008G17KT 7SM OVC015 07/06 A2986 RMK AO2 SLP111 70001 T00720061 10094 20072 53010 $
KIAH 141053Z 27012G17KT 10SM FEW010 OVC018 08/05 A2984 RMK AO2 SLP103 T00830050 $
KIAH 140953Z 27005KT 10SM FEW010 OVC020 07/06 A2984 RMK AO2 SLP103 T00720061 $
KIAH 140853Z 26013G18KT 10SM OVC023 08/04 A2983 RMK AO2 SLP100 T00830044 56003 $
KIAH 140817Z 26009G21KT 10SM BKN025 OVC043 09/04 A2983 RMK AO2 T00890044 $
KIAH 140753Z 26008G17KT 10SM SCT025 BKN040 09/04 A2983 RMK AO2 SLP101 T00890044 $
KIAH 140653Z 28012G17KT 10SM BKN033 09/04 A2983 RMK AO2 SLP099 T00940044 $
KIAH 140553Z 27012G19KT 10SM BKN032 09/04 A2984 RMK AO2 SLP103 T00940039 10200 20089 402390089 51013 $
KIAH 140453Z 28012G21KT 10SM FEW035 09/04 A2984 RMK AO2 SLP103 T00940039 $
KIAH 140353Z 26013G19KT 10SM FEW035 11/05 A2982 RMK AO2 SLP099 T01060050 $
KIAH 140253Z COR 28011KT 10SM CLR 13/06 A2980 RMK AO2 PK WND 28029/0221 SLP090 T01280061 53025 $
KIAH 140153Z 28007KT 10SM FEW120 17/07 A2975 RMK AO2 SLP074 APRNT FROPA 0141 T01720072 $
KIAH 140053Z 27004KT 10SM FEW090 BKN120 18/10 A2974 RMK AO2 SLP070 T01830100 $
KIAH 132353Z 28006KT 10SM SCT065 BKN110 20/12 A2972 RMK AO2 SLP065 T02000117 10239 20200 53012
KIAH 132253Z 25005KT 10SM FEW040 SCT070 22/12 A2970 RMK AO2 SLP057 T02220122
KIAH 132153Z 25008KT 10SM FEW040 SCT100 23/13 A2970 RMK AO2 SLP055 T02280133
KIAH 132053Z 25010G15KT 10SM SCT040 SCT100 23/15 A2969 RMK AO2 SLP053 CB DSNT E-SE T02280150 55013
KIAH 131953Z 22012KT 10SM BKN033 23/15 A2969 RMK AO2 SLP053 T02280150
KIAH 131916Z 22010G17KT 10SM BKN030 22/16 A2969 RMK AO2 MDT CU E-SE T02170161
KIAH 131853Z 22009G17KT 10SM BKN027 22/16 A2970 RMK AO2 SLP058 MDT CU NE-SE T02220161
KIAH 131753Z 21009G18KT 10SM BKN024 BKN110 22/17 A2973 RMK AO2 SLP066 60001 T02220167 10228 20178 58015
KIAH 131653Z 20009KT 10SM BKN017 BKN120 21/18 A2976 RMK AO2 SLP078 T02110178
KIAH 131553Z 20007KT 10SM FEW008 SCT110 21/19 A2978 RMK AO2 SLP083 T02110194
KIAH 131530Z 17007KT 10SM SCT007 BKN110 19/19 A2977 RMK AO2 T01940189
KIAH 131453Z 17004KT 7SM FEW010 BKN110 OVC150 18/18 A2977 RMK AO2 RAE17 SLP080 P0001 60001 T01830183 52005
KIAH 131353Z 16006KT 7SM -RA SCT013 BKN100 OVC140 18/18 A2977 RMK AO2 RAB48 SLP079 P0000 T01830183
KIAH 131313Z VRB05KT 7SM FEW008 BKN013 OVC120 18/18 A2976 RMK AO2 T01830178
KIAH 131253Z 16007KT 10SM BKN015 OVC030 18/18 A2976 RMK AO2 SLP076 T01830178
KIAH 131153Z 19007KT 10SM BKN022 BKN100 BKN190 18/17 A2975 RMK AO2 RAE22 SLP075 P0002 60068 70068 T01780172 10200 20172 53000 $
KIAH 131115Z 19007KT 8SM -RA FEW009 SCT020 BKN075 OVC130 18/17 A2973 RMK AO2 P0002 T01780167 $
KIAH 131053Z 16009KT 4SM RA BR BKN009 BKN045 OVC100 18/18 A2972 RMK AO2 TSE17 SLP064 OCNL LTGIC DSNT E S TS MOVD NE CB DSNT E S MOV NE P0021 T01780178 $
KIAH 131017Z COR 16009KT 4SM +RA BR FEW009 BKN016 OVC045 18/18 A2977 RMK AO2 LTG DSNT S AND NW TSE17 TS MOVD NE CB DSNT S NW MOV NE P0009 T01830178 $
KIAH 130953Z 15010KT 2SM +TSRA BR FEW009 BKN018CB OVC040 18/18 A2975 RMK AO2 PK WND 17027/0942 SLP075 OCNL LTGICCC N-E-SE TS N-E-SE MOV NE P0045 T01830183 $
KIAH 130941Z 15013G20KT 1 1/2SM +TSRA BR BKN015CB OVC045 18/18 A2977 RMK AO2 FRQ LTGICCC ALQDS TS ALQDS MOV NE P0020 T01830178 $
KIAH 130932Z 19003KT 3SM TSRA BR BKN017CB OVC040 18/18 A2977 RMK AO2 FRQ LTGICCC ALQDS TS ALQDS MOV NE P0017 T01830178 $
KIAH 130922Z 17009G15KT 2SM +TSRA BR OVC020CB 18/18 A2976 RMK AO2 LTG DSNT ALQDS FRQ LTGICCC OHD TS OHD MOV NE P0005 T01830178 $
KIAH 130853Z 15014KT 10SM -TSRA OVC020CB 19/16 A2975 RMK AO2 RAB51 TSB41 SLP075 OCNL LTGICCC W-N TS W-N MOV NE P0000 60000 T01940161 58041 $
KIAH 130841Z 14012KT 10SM TS OVC022CB 19/16 A2977 RMK AO2 TSB41 OCNL LTGICCC W-N TS W-N MOV NE T01940161 $
KIAH 130826Z 14012KT 10SM BKN022 OVC043 19/16 A2978 RMK AO2 LTG DSNT W AND NW CB DSNT W NW MOV NE T01940161 $
KIAH 130804Z 15008KT 10SM BKN027 BKN045 OVC070 19/16 A2980 RMK AO2 PRESFR T01940161 $
KIAH 130753Z 15009KT 10SM BKN030 OVC045 19/16 A2981 RMK AO2 SLP095 T01940161 $